Time;durP1;ratioP1;P1;durP2;ratioP2;P2;SDS_P1;SDS_P2;PMS_P1;PMS_P2;Temp;Humidity;BMP_temperature;BMP_pressure;BME280_temperature;BME280_humidity;BME280_pressure;Samples;Min_cycle;Max_cycle;Signal;HPM_P1;HPM_P2
2021/12/24 00:02:09;;;;;;;;;;;;;;;0.03;70.84;94512.44;4979352;28;20355;-67
2021/12/24 00:04:34;;;;;;;;;;;;;;;0.06;69.89;94509.53;4979569;28;20294;-68
2021/12/24 00:06:59;;;;;;;;;;;;;;;-0.19;71.30;94504.72;4978983;28;19994;-66
2021/12/24 00:09:27;;;;;;;;;;;;;;;-0.34;71.04;94514.00;4979156;28;20021;-66
2021/12/24 00:11:56;;;;;;;;;;;;;;;-0.05;70.64;94507.91;4978699;28;20591;-67
2021/12/24 00:14:23;;;;;;;;;;;;;;;-0.01;70.62;94495.38;4976406;28;19994;-66
2021/12/24 00:16:53;;;;;;;;;;;;;;;-0.57;72.14;94507.19;4972571;28;20339;-67
2021/12/24 00:19:45;;;;;;;;;;;;;;;0.04;70.63;94498.41;4965644;28;20539;-69
2021/12/24 00:35:47;;;;;;;;;;;;;;;0.20;69.52;94505.66;4974947;28;19994;-65
2021/12/24 00:38:12;;;;;;;;;;;;;;;0.27;69.28;94511.19;4976946;28;20601;-68
2021/12/24 00:40:38;;;;;;;;;;;;;;;0.24;69.16;94506.22;4973635;28;20443;-65
2021/12/24 00:43:04;;;;;;;;;;;;;;;0.25;69.43;94508.72;4978470;28;20415;-66
2021/12/24 00:45:30;;;;;;;;;;;;;;;-0.21;71.46;94517.16;4978143;28;20029;-66
2021/12/24 00:47:55;;;;;;;;;;;;;;;-0.02;70.82;94498.94;4978036;28;20366;-66
2021/12/24 00:50:24;;;;;;;;;;;;;;;-0.19;71.25;94491.66;4978448;28;20081;-66
2021/12/24 00:52:56;;;;;;;;;;;;;;;0.33;70.12;94477.41;4978597;28;20468;-66
2021/12/24 00:55:24;;;;;;;;;;;;;;;0.71;68.93;94479.19;4978202;28;20080;-67
2021/12/24 00:57:53;;;;;;;;;;;;;;;0.31;70.38;94479.31;4976730;28;19970;-65
2021/12/24 01:00:20;;;;;;;;;;;;;;;0.93;67.78;94470.16;4978502;28;19990;-66
2021/12/24 01:02:45;;;;;;;;;;;;;;;0.62;69.18;94477.44;4978228;28;20507;-67
2021/12/24 01:05:11;;;;;;;;;;;;;;;0.59;69.69;94462.84;4978551;28;19970;-65
2021/12/24 01:07:36;;;;;;;;;;;;;;;1.01;68.17;94471.19;4978857;28;19994;-68
2021/12/24 01:10:02;;;;;;;;;;;;;;;0.43;70.43;94469.50;4998885;28;21868;-67
2021/12/24 01:12:28;;;;;;;;;;;;;;;0.50;70.62;94471.53;4982084;28;19974;-69
2021/12/24 01:14:53;;;;;;;;;;;;;;;0.63;70.31;94472.06;4986526;28;19991;-67
2021/12/24 01:20:01;;;;;;;;;;;;;;;1.16;68.39;94467.09;4981767;28;19994;-68
2021/12/24 01:25:21;;;;;;;;;;;;;;;0.09;73.03;94475.25;4982102;28;20020;-67
2021/12/24 01:38:19;;;;;;;;;;;;;;;0.33;72.88;94466.94;4983729;28;20009;-67
2021/12/24 01:43:15;;;;;;;;;;;;;;;-0.14;74.92;94454.63;4985511;28;20044;-67
2021/12/24 01:45:40;;;;;;;;;;;;;;;-0.15;75.04;94452.13;4985903;28;19971;-67
2021/12/24 01:48:06;;;;;;;;;;;;;;;0.10;74.89;94444.69;4982807;28;20001;-66
2021/12/24 01:50:33;;;;;;;;;;;;;;;-0.17;75.52;94460.13;4985230;28;19998;-66
2021/12/24 01:52:58;;;;;;;;;;;;;;;0.46;72.67;94447.44;4984056;28;19966;-68
2021/12/24 01:55:24;;;;;;;;;;;;;;;0.24;74.49;94443.41;4985034;28;20411;-68
2021/12/24 01:57:49;;;;;;;;;;;;;;;0.37;73.97;94456.19;4984891;28;19974;-67
2021/12/24 02:00:16;;;;;;;;;;;;;;;0.36;73.53;94441.41;4985460;28;19998;-68
2021/12/24 02:02:41;;;;;;;;;;;;;;;0.37;73.41;94448.31;4983170;28;19990;-67
2021/12/24 02:05:06;;;;;;;;;;;;;;;0.45;73.37;94441.38;4974126;28;19974;-67
2021/12/24 02:07:32;;;;;;;;;;;;;;;0.70;72.22;94433.00;4985084;28;19994;-66
2021/12/24 02:09:57;;;;;;;;;;;;;;;0.35;74.06;94448.47;4985035;28;19973;-66
2021/12/24 02:12:24;;;;;;;;;;;;;;;0.53;73.40;94447.69;4984825;28;20085;-68
2021/12/24 02:14:53;;;;;;;;;;;;;;;0.62;73.31;94451.25;4984087;28;19996;-68
2021/12/24 02:17:41;;;;;;;;;;;;;;;0.43;74.41;94448.56;4984661;28;19978;-66
2021/12/24 02:28:31;;;;;;;;;;;;;;;0.18;75.85;94429.09;4985033;28;20016;-67
2021/12/24 02:30:56;;;;;;;;;;;;;;;0.36;75.25;94434.38;4984886;28;20005;-67
2021/12/24 02:33:21;;;;;;;;;;;;;;;0.34;75.83;94423.22;4984725;28;20371;-68
2021/12/24 02:35:46;;;;;;;;;;;;;;;0.50;75.58;94419.16;4984310;28;20034;-65
2021/12/24 02:38:12;;;;;;;;;;;;;;;0.62;74.43;94420.66;4984294;28;20006;-68
2021/12/24 02:40:37;;;;;;;;;;;;;;;0.66;75.17;94418.56;4984364;28;19994;-68
2021/12/24 02:43:03;;;;;;;;;;;;;;;0.39;76.05;94410.53;4984086;28;20072;-67
2021/12/24 02:45:29;;;;;;;;;;;;;;;0.25;76.70;94417.06;4984612;28;19981;-66
2021/12/24 02:48:11;;;;;;;;;;;;;;;0.14;76.66;94404.16;4983950;28;20025;-69
2021/12/24 02:56:05;;;;;;;;;;;;;;;0.03;77.45;94387.66;4977685;28;20051;-66
2021/12/24 02:58:40;;;;;;;;;;;;;;;0.01;77.81;94412.31;4983838;28;19998;-67
2021/12/24 03:01:05;;;;;;;;;;;;;;;0.18;76.82;94416.00;4984232;28;19974;-68
2021/12/24 03:03:30;;;;;;;;;;;;;;;-0.17;78.26;94405.19;4975712;28;20285;-66
2021/12/24 03:05:56;;;;;;;;;;;;;;;0.32;76.65;94399.81;4979251;28;20403;-66
2021/12/24 03:08:21;;;;;;;;;;;;;;;0.27;76.89;94412.50;4984610;28;19974;-66
2021/12/24 03:10:46;;;;;;;;;;;;;;;0.47;75.99;94408.03;4983610;28;19994;-68
2021/12/24 03:13:11;;;;;;;;;;;;;;;0.55;75.80;94407.28;4984372;28;19978;-67
2021/12/24 03:15:38;;;;;;;;;;;;;;;0.46;75.54;94406.38;4983722;28;20506;-67
2021/12/24 03:18:04;;;;;;;;;;;;;;;0.47;76.35;94396.72;4983708;28;19997;-67
2021/12/24 03:20:33;;;;;;;;;;;;;;;0.42;76.39;94388.47;4983891;28;19994;-68
2021/12/24 03:23:08;;;;;;;;;;;;;;;-0.15;78.37;94397.19;4983313;28;20000;-66
2021/12/24 03:25:33;;;;;;;;;;;;;;;0.15;76.44;94383.06;4983808;28;20282;-66
2021/12/24 03:27:58;;;;;;;;;;;;;;;0.01;78.04;94386.16;4983494;28;20073;-67
2021/12/24 03:30:23;;;;;;;;;;;;;;;-0.12;78.17;94371.59;4983337;28;20068;-68
2021/12/24 03:32:49;;;;;;;;;;;;;;;0.01;78.00;94389.59;4984082;28;20029;-67
2021/12/24 03:35:14;;;;;;;;;;;;;;;0.00;77.73;94393.16;4982770;28;20189;-66
2021/12/24 03:37:39;;;;;;;;;;;;;;;0.46;75.83;94381.97;4983774;28;20447;-68
2021/12/24 03:40:05;;;;;;;;;;;;;;;0.12;76.79;94372.06;4982922;28;20587;-66
2021/12/24 03:42:30;;;;;;;;;;;;;;;0.26;75.62;94365.50;4983334;28;20358;-66
2021/12/24 03:45:08;;;;;;;;;;;;;;;-0.02;77.26;94373.34;4983705;28;19985;-68
2021/12/24 03:47:38;;;;;;;;;;;;;;;-0.15;77.30;94365.78;4982732;28;20467;-67
2021/12/24 03:50:08;;;;;;;;;;;;;;;-0.21;77.48;94369.81;4982881;28;20001;-68
2021/12/24 03:53:00;;;;;;;;;;;;;;;0.16;75.78;94360.31;4983154;28;20435;-67
2021/12/24 03:55:21;;;;;;;;;;;;;;;-0.06;76.26;94376.22;4982643;28;20355;-67
2021/12/24 03:57:47;;;;;;;;;;;;;;;0.57;74.48;94367.84;4981729;28;19977;-67
2021/12/24 04:00:16;;;;;;;;;;;;;;;-0.07;76.36;94365.91;4983236;28;20432;-67
2021/12/24 04:02:41;;;;;;;;;;;;;;;0.09;75.50;94383.63;4982682;28;20385;-67
2021/12/24 04:05:07;;;;;;;;;;;;;;;0.39;74.74;94371.25;4983273;28;20057;-67
2021/12/24 04:07:32;;;;;;;;;;;;;;;0.76;73.39;94368.72;4982381;28;19994;-67
2021/12/24 04:10:18;;;;;;;;;;;;;;;1.20;70.86;94353.06;4982714;28;19978;-68
2021/12/24 04:12:43;;;;;;;;;;;;;;;0.64;72.70;94382.00;4982390;28;20443;-68
2021/12/24 04:15:09;;;;;;;;;;;;;;;0.31;74.08;94369.34;4982061;28;19997;-67
2021/12/24 04:17:37;;;;;;;;;;;;;;;0.63;72.53;94392.63;4982687;28;20385;-66
2021/12/24 04:25:21;;;;;;;;;;;;;;;0.30;75.41;94362.47;4983157;28;20065;-69
2021/12/24 04:27:46;;;;;;;;;;;;;;;0.12;75.79;94369.44;4982378;28;19990;-68
2021/12/24 04:30:16;;;;;;;;;;;;;;;-0.28;77.68;94356.47;4982219;28;20245;-67
2021/12/24 04:51:54;;;;;;;;;;;;;;;0.06;77.35;94358.56;4980679;28;20085;-67
2021/12/24 05:05:03;;;;;;;;;;;;;;;0.24;76.28;94365.66;4980596;28;20466;-67
2021/12/24 05:08:03;;;;;;;;;;;;;;;-0.37;79.19;94370.41;4981713;28;19998;-67
2021/12/24 05:10:25;;;;;;;;;;;;;;;0.34;76.37;94368.22;4972948;28;20002;-68
2021/12/24 05:12:50;;;;;;;;;;;;;;;0.52;75.29;94370.94;4983528;28;19974;-67
2021/12/24 05:15:15;;;;;;;;;;;;;;;0.01;77.68;94381.75;4986358;28;19998;-67
2021/12/24 05:18:06;;;;;;;;;;;;;;;-0.02;77.61;94379.41;4985366;28;19970;-68
2021/12/24 05:23:15;;;;;;;;;;;;;;;0.25;77.37;94388.28;4985310;28;20529;-67
2021/12/24 05:25:41;;;;;;;;;;;;;;;0.32;76.31;94365.78;4986051;28;20021;-68
2021/12/24 05:28:06;;;;;;;;;;;;;;;0.01;78.10;94371.28;4985478;28;19974;-67
2021/12/24 05:30:32;;;;;;;;;;;;;;;-0.07;77.54;94363.28;4984429;28;20440;-67
2021/12/24 05:32:57;;;;;;;;;;;;;;;-0.20;77.89;94363.63;4985603;28;20366;-65
2021/12/24 05:35:22;;;;;;;;;;;;;;;-0.03;78.02;94356.81;4985386;28;20001;-68
2021/12/24 05:37:47;;;;;;;;;;;;;;;-0.20;78.88;94361.00;4985466;28;19998;-68
2021/12/24 05:40:13;;;;;;;;;;;;;;;-0.48;79.52;94356.50;4985350;28;20001;-66
2021/12/24 05:42:38;;;;;;;;;;;;;;;-0.08;78.24;94362.47;4985827;28;20471;-66
2021/12/24 05:45:06;;;;;;;;;;;;;;;0.07;75.95;94368.06;4985130;28;20285;-67
2021/12/24 05:47:31;;;;;;;;;;;;;;;0.29;76.33;94363.44;4985235;28;20344;-67
2021/12/24 05:49:56;;;;;;;;;;;;;;;-0.04;77.40;94383.94;4983625;28;19970;-68
2021/12/24 05:52:21;;;;;;;;;;;;;;;-0.27;77.38;94373.81;4985964;28;19970;-69
2021/12/24 05:54:47;;;;;;;;;;;;;;;-0.03;77.17;94380.34;4985032;28;20236;-69
2021/12/24 05:57:12;;;;;;;;;;;;;;;0.02;76.36;94391.25;4985212;28;19995;-67
2021/12/24 05:59:37;;;;;;;;;;;;;;;0.25;75.46;94374.34;4984786;28;20459;-68
2021/12/24 06:02:03;;;;;;;;;;;;;;;0.00;75.12;94401.00;4985150;28;20525;-68
2021/12/24 06:04:28;;;;;;;;;;;;;;;-0.01;75.86;94378.44;4985195;28;20644;-67
2021/12/24 06:06:53;;;;;;;;;;;;;;;-0.07;75.53;94390.28;4985422;28;19990;-67
2021/12/24 06:09:18;;;;;;;;;;;;;;;0.26;74.35;94379.44;4984973;28;20439;-67
2021/12/24 06:11:44;;;;;;;;;;;;;;;0.11;74.69;94380.88;4984665;28;20568;-66
2021/12/24 06:14:11;;;;;;;;;;;;;;;0.30;74.31;94388.66;4984657;28;19994;-66
2021/12/24 06:16:37;;;;;;;;;;;;;;;0.10;73.99;94397.56;4985070;28;20291;-67
2021/12/24 06:19:03;;;;;;;;;;;;;;;0.18;74.58;94397.66;4984083;28;20509;-67
2021/12/24 06:21:29;;;;;;;;;;;;;;;0.63;72.81;94376.91;4983849;28;20012;-67
2021/12/24 06:23:54;;;;;;;;;;;;;;;0.38;73.64;94389.72;4984029;28;20025;-67
2021/12/24 06:26:19;;;;;;;;;;;;;;;0.50;72.84;94390.34;4984625;28;20183;-67
2021/12/24 06:28:45;;;;;;;;;;;;;;;0.30;73.15;94388.66;4984672;28;19978;-66
2021/12/24 06:31:10;;;;;;;;;;;;;;;0.38;73.43;94382.69;4984360;28;20414;-66
2021/12/24 06:33:35;;;;;;;;;;;;;;;0.13;74.10;94395.47;4984382;28;20057;-67
2021/12/24 06:36:01;;;;;;;;;;;;;;;0.53;72.54;94392.69;4983164;28;20463;-68
2021/12/24 06:38:26;;;;;;;;;;;;;;;0.64;72.11;94394.28;4983479;28;20095;-67
2021/12/24 06:40:52;;;;;;;;;;;;;;;0.45;72.46;94396.84;4983150;28;19994;-67
2021/12/24 06:43:17;;;;;;;;;;;;;;;0.61;71.99;94407.69;4984143;28;20005;-67
2021/12/24 06:45:42;;;;;;;;;;;;;;;0.41;73.20;94402.53;4984245;28;19982;-66
2021/12/24 06:48:07;;;;;;;;;;;;;;;0.78;71.50;94403.47;4984277;28;20061;-68
2021/12/24 06:50:33;;;;;;;;;;;;;;;0.52;72.46;94402.34;4984316;28;19998;-68
2021/12/24 06:52:58;;;;;;;;;;;;;;;0.64;71.78;94389.88;4983104;28;19975;-68
2021/12/24 06:55:23;;;;;;;;;;;;;;;0.96;70.79;94388.56;4984093;28;20004;-68
2021/12/24 06:57:48;;;;;;;;;;;;;;;1.29;69.79;94379.41;4983863;28;19994;-68
2021/12/24 07:00:15;;;;;;;;;;;;;;;1.03;70.22;94380.97;4984542;28;19994;-66
2021/12/24 07:02:40;;;;;;;;;;;;;;;0.77;71.69;94399.19;4983659;28;19986;-67
2021/12/24 07:05:05;;;;;;;;;;;;;;;0.75;71.46;94390.66;4982806;28;19970;-68
2021/12/24 07:07:31;;;;;;;;;;;;;;;0.85;70.83;94384.38;4983547;28;20017;-67
2021/12/24 07:09:56;;;;;;;;;;;;;;;0.41;72.70;94390.25;4983992;28;20008;-68
2021/12/24 07:12:21;;;;;;;;;;;;;;;0.78;71.81;94387.75;4983404;28;20065;-68
2021/12/24 07:14:49;;;;;;;;;;;;;;;0.48;72.63;94393.13;4983716;28;20259;-68
2021/12/24 07:17:14;;;;;;;;;;;;;;;0.44;72.68;94391.75;4983404;28;20465;-68
2021/12/24 07:19:39;;;;;;;;;;;;;;;0.38;72.66;94395.78;4982805;28;19994;-68
2021/12/24 07:22:04;;;;;;;;;;;;;;;1.13;69.59;94401.03;4982266;28;20016;-69
2021/12/24 07:24:29;;;;;;;;;;;;;;;0.53;71.99;94411.03;4983794;28;20013;-68
2021/12/24 07:26:55;;;;;;;;;;;;;;;0.12;73.86;94408.69;4983151;28;20009;-67
2021/12/24 07:29:20;;;;;;;;;;;;;;;0.54;72.42;94412.66;4983729;28;20446;-67
2021/12/24 07:31:45;;;;;;;;;;;;;;;0.52;72.24;94418.06;4982277;28;20038;-68
2021/12/24 07:34:10;;;;;;;;;;;;;;;0.66;71.75;94402.81;4983555;28;20001;-70
2021/12/24 07:36:36;;;;;;;;;;;;;;;0.54;72.16;94412.66;4982649;28;19970;-67
2021/12/24 07:39:01;;;;;;;;;;;;;;;0.84;71.42;94402.88;4982841;28;20056;-68
2021/12/24 07:41:26;;;;;;;;;;;;;;;0.66;71.46;94411.53;4983256;28;20501;-69
2021/12/24 07:43:52;;;;;;;;;;;;;;;0.73;70.98;94407.31;4981677;28;19994;-69
2021/12/24 07:46:17;;;;;;;;;;;;;;;0.84;70.73;94423.81;4981822;28;19990;-69
2021/12/24 07:48:49;;;;;;;;;;;;;;;0.52;71.85;94425.09;4983234;28;20331;-70
2021/12/24 07:54:00;;;;;;;;;;;;;;;0.80;70.98;94420.69;4983020;28;19993;-69
2021/12/24 07:56:26;;;;;;;;;;;;;;;0.75;71.03;94420.28;4982953;28;20060;-68
2021/12/24 07:58:51;;;;;;;;;;;;;;;0.58;71.40;94417.47;4982596;28;20473;-69
2021/12/24 08:01:16;;;;;;;;;;;;;;;0.47;71.86;94428.97;4981873;28;20072;-69
2021/12/24 08:03:42;;;;;;;;;;;;;;;0.18;72.99;94434.31;4982467;28;20037;-69
2021/12/24 08:06:07;;;;;;;;;;;;;;;0.10;73.92;94426.34;4982846;28;20422;-69
2021/12/24 08:08:32;;;;;;;;;;;;;;;0.46;72.25;94442.22;4982924;28;19970;-69
2021/12/24 08:10:57;;;;;;;;;;;;;;;0.41;72.60;94432.16;4981783;28;20492;-67
2021/12/24 08:13:23;;;;;;;;;;;;;;;0.16;73.59;94436.25;4982369;28;20076;-68
2021/12/24 08:15:50;;;;;;;;;;;;;;;0.07;74.18;94430.06;4981949;28;20037;-69
2021/12/24 08:18:15;;;;;;;;;;;;;;;0.54;72.52;94431.84;4981779;28;19998;-70
2021/12/24 08:20:41;;;;;;;;;;;;;;;0.71;71.34;94409.28;4982643;28;20101;-69
2021/12/24 08:23:06;;;;;;;;;;;;;;;0.48;72.14;94414.06;4980938;28;20002;-69
2021/12/24 08:25:31;;;;;;;;;;;;;;;0.68;71.21;94414.81;4982400;28;19978;-70
2021/12/24 08:27:56;;;;;;;;;;;;;;;0.74;71.04;94413.41;4981463;28;20100;-69
2021/12/24 08:30:22;;;;;;;;;;;;;;;1.05;69.70;94409.63;4981630;28;20092;-69
2021/12/24 08:32:47;;;;;;;;;;;;;;;0.76;71.08;94416.72;4981731;28;19974;-68
2021/12/24 08:35:13;;;;;;;;;;;;;;;1.44;68.53;94408.53;4981728;28;20081;-69
2021/12/24 08:37:39;;;;;;;;;;;;;;;1.18;68.90;94406.66;4982326;28;20290;-71
2021/12/24 08:40:04;;;;;;;;;;;;;;;1.30;68.17;94402.81;4981743;28;19994;-68
2021/12/24 08:42:29;;;;;;;;;;;;;;;1.05;68.94;94422.72;4980905;28;19994;-69
2021/12/24 08:44:54;;;;;;;;;;;;;;;0.98;69.15;94414.63;4981715;28;19970;-68
2021/12/24 08:47:20;;;;;;;;;;;;;;;0.94;68.89;94406.25;4980087;28;20017;-68
2021/12/24 08:49:45;;;;;;;;;;;;;;;0.79;70.10;94420.84;4980335;28;19971;-68
2021/12/24 08:52:10;;;;;;;;;;;;;;;0.93;69.59;94430.84;4982052;28;20000;-68
2021/12/24 08:54:36;;;;;;;;;;;;;;;1.24;68.46;94424.41;4982089;28;19990;-69
2021/12/24 08:57:01;;;;;;;;;;;;;;;1.24;67.85;94421.78;4982612;28;20215;-68
2021/12/24 08:59:26;;;;;;;;;;;;;;;1.26;68.30;94404.09;4977942;28;19994;-69
2021/12/24 09:01:51;;;;;;;;;;;;;;;1.38;67.93;94404.72;4980860;28;20355;-68
2021/12/24 09:04:17;;;;;;;;;;;;;;;1.28;67.94;94401.31;4974331;28;20050;-68
2021/12/24 09:06:42;;;;;;;;;;;;;;;1.43;67.31;94391.94;4977458;28;20233;-70
2021/12/24 09:09:07;;;;;;;;;;;;;;;0.87;69.17;94404.34;4977579;28;20069;-69
2021/12/24 09:11:36;;;;;;;;;;;;;;;1.02;68.87;94395.03;4977087;28;20074;-70
2021/12/24 09:14:01;;;;;;;;;;;;;;;1.08;68.42;94378.72;4977559;28;20451;-69
2021/12/24 09:16:27;;;;;;;;;;;;;;;1.12;68.40;94381.84;4978392;28;20024;-67
2021/12/24 09:19:00;;;;;;;;;;;;;;;0.73;69.45;94385.56;4977659;28;20467;-69
2021/12/24 09:21:25;;;;;;;;;;;;;;;0.53;70.67;94384.81;4978234;28;19978;-68
2021/12/24 09:23:51;;;;;;;;;;;;;;;0.90;69.23;94388.34;4977664;28;19988;-69
2021/12/24 09:26:23;;;;;;;;;;;;;;;0.69;69.69;94381.59;4976669;28;19994;-68
2021/12/24 09:28:49;;;;;;;;;;;;;;;1.20;67.77;94381.91;4977409;28;19974;-70
2021/12/24 09:31:14;;;;;;;;;;;;;;;1.39;67.13;94377.50;4974352;28;20529;-68
2021/12/24 09:33:39;;;;;;;;;;;;;;;1.26;67.62;94385.75;4977874;28;19974;-69
2021/12/24 09:36:05;;;;;;;;;;;;;;;1.53;66.53;94378.78;4977549;28;20052;-69
2021/12/24 09:38:30;;;;;;;;;;;;;;;1.38;66.76;94383.72;4971256;28;20125;-69
2021/12/24 09:40:55;;;;;;;;;;;;;;;0.88;68.21;94382.44;4978150;28;20355;-67
2021/12/24 09:43:20;;;;;;;;;;;;;;;1.05;68.65;94370.31;4969921;28;19986;-70
2021/12/24 09:45:45;;;;;;;;;;;;;;;1.17;67.47;94369.13;4975384;28;20065;-68
2021/12/24 09:48:11;;;;;;;;;;;;;;;1.59;66.18;94364.22;4976576;28;20018;-67
2021/12/24 09:50:37;;;;;;;;;;;;;;;1.01;67.53;94361.09;4977655;28;19998;-69
2021/12/24 09:53:03;;;;;;;;;;;;;;;0.41;70.69;94369.31;4977084;28;19970;-68
2021/12/24 09:55:29;;;;;;;;;;;;;;;0.29;71.33;94378.31;4977391;28;20093;-67
2021/12/24 09:57:54;;;;;;;;;;;;;;;0.44;71.01;94368.19;4977703;28;19970;-69
2021/12/24 10:00:22;;;;;;;;;;;;;;;0.31;71.35;94376.41;4995817;28;20327;-69
2021/12/24 10:02:50;;;;;;;;;;;;;;;0.71;69.58;94369.16;4981320;28;20092;-69
2021/12/24 10:05:30;;;;;;;;;;;;;;;0.87;69.50;94367.66;4981550;28;20175;-68
2021/12/24 10:07:59;;;;;;;;;;;;;;;0.77;68.67;94380.84;4980738;28;20155;-68
2021/12/24 10:10:26;;;;;;;;;;;;;;;1.06;67.72;94380.63;4979690;28;20679;-70
2021/12/24 10:12:52;;;;;;;;;;;;;;;1.47;66.99;94358.38;4981214;28;20044;-70
2021/12/24 10:15:18;;;;;;;;;;;;;;;1.55;66.17;94368.97;4994668;28;20516;-68
2021/12/24 10:17:43;;;;;;;;;;;;;;;1.46;66.55;94369.84;4983625;28;19997;-69
2021/12/24 10:20:18;;;;;;;;;;;;;;;1.26;66.68;94362.13;4980317;28;20041;-68
2021/12/24 10:22:47;;;;;;;;;;;;;;;1.50;66.60;94356.28;4977499;28;20044;-68
2021/12/24 10:25:13;;;;;;;;;;;;;;;1.61;66.06;94354.44;4981117;28;19982;-68
2021/12/24 10:27:39;;;;;;;;;;;;;;;1.28;67.32;94357.59;4980144;28;20421;-69
2021/12/24 10:30:23;;;;;;;;;;;;;;;0.75;68.68;94361.84;4979737;28;19990;-68
2021/12/24 10:32:49;;;;;;;;;;;;;;;1.44;66.87;94348.19;4981106;28;19974;-68
2021/12/24 10:35:30;;;;;;;;;;;;;;;1.32;66.85;94352.84;4980497;28;20117;-68
2021/12/24 10:38:14;;;;;;;;;;;;;;;1.33;67.04;94339.59;4980480;28;20100;-69
2021/12/24 10:40:49;;;;;;;;;;;;;;;1.43;66.68;94338.69;4979138;28;19986;-69
2021/12/24 10:43:22;;;;;;;;;;;;;;;1.78;65.30;94344.88;4980431;28;20244;-70
2021/12/24 10:45:47;;;;;;;;;;;;;;;1.83;64.66;94339.13;4972855;28;20351;-69
2021/12/24 10:48:17;;;;;;;;;;;;;;;2.39;63.00;94336.94;4979972;28;19988;-75
2021/12/24 10:50:49;;;;;;;;;;;;;;;2.59;62.03;94343.78;4978504;28;19994;-75
2021/12/24 10:53:31;;;;;;;;;;;;;;;3.03;60.84;94338.28;4980673;28;19974;-76
2021/12/24 10:55:57;;;;;;;;;;;;;;;2.01;63.80;94349.59;4977738;28;20322;-75
2021/12/24 10:58:23;;;;;;;;;;;;;;;2.07;63.78;94341.09;4980022;28;19994;-75
2021/12/24 11:00:52;;;;;;;;;;;;;;;2.53;61.61;94345.22;4977599;28;20108;-63
2021/12/24 11:03:20;;;;;;;;;;;;;;;2.41;62.68;94328.91;4978111;28;20033;-63
2021/12/24 11:05:46;;;;;;;;;;;;;;;2.55;62.07;94337.19;4979195;28;19981;-63
2021/12/24 11:08:16;;;;;;;;;;;;;;;2.20;62.42;94343.28;4978622;28;19974;-63
2021/12/24 11:10:42;;;;;;;;;;;;;;;1.74;63.74;94346.16;4978512;28;20121;-63
2021/12/24 11:13:14;;;;;;;;;;;;;;;1.35;66.22;94336.81;4978760;28;20403;-63
2021/12/24 11:15:41;;;;;;;;;;;;;;;1.17;66.31;94337.66;4975753;28;19998;-62
2021/12/24 11:18:07;;;;;;;;;;;;;;;1.14;66.91;94332.72;4975934;28;20455;-63
2021/12/24 11:20:33;;;;;;;;;;;;;;;1.09;66.90;94335.78;4977393;28;19998;-63
2021/12/24 11:23:02;;;;;;;;;;;;;;;1.24;66.53;94332.63;4978985;28;20545;-63
2021/12/24 11:25:29;;;;;;;;;;;;;;;1.66;65.68;94341.66;4973227;28;20483;-63
2021/12/24 11:27:54;;;;;;;;;;;;;;;1.33;66.50;94342.19;4978612;28;19994;-63
2021/12/24 11:30:21;;;;;;;;;;;;;;;1.44;66.26;94333.28;4979530;28;20207;-63
2021/12/24 11:32:46;;;;;;;;;;;;;;;1.81;64.53;94349.78;4980139;28;20016;-63
2021/12/24 11:35:12;;;;;;;;;;;;;;;1.74;65.20;94346.97;4993763;28;20502;-62
2021/12/24 11:37:38;;;;;;;;;;;;;;;2.56;63.01;94338.81;4978537;28;20211;-63
2021/12/24 11:40:04;;;;;;;;;;;;;;;1.36;64.65;94354.19;4977865;28;19997;-63
2021/12/24 11:42:32;;;;;;;;;;;;;;;2.48;62.55;94364.09;4979582;28;20516;-63
2021/12/24 11:44:57;;;;;;;;;;;;;;;3.09;61.56;94341.25;4978886;28;19974;-63
2021/12/24 11:47:22;;;;;;;;;;;;;;;2.84;60.68;94346.44;4977949;28;20425;-63
2021/12/24 11:49:48;;;;;;;;;;;;;;;2.50;61.63;94356.03;4979216;28;20261;-63
2021/12/24 11:52:13;;;;;;;;;;;;;;;2.33;62.83;94345.47;4978068;28;20338;-63
2021/12/24 11:54:38;;;;;;;;;;;;;;;2.57;62.35;94343.09;4979063;28;20000;-63
2021/12/24 11:57:12;;;;;;;;;;;;;;;1.57;64.48;94343.41;4977452;28;19978;-63
2021/12/24 11:59:38;;;;;;;;;;;;;;;1.77;63.72;94345.03;4977079;28;20001;-63
2021/12/24 12:02:03;;;;;;;;;;;;;;;1.04;66.31;94342.44;4977646;28;19976;-63
2021/12/24 12:04:28;;;;;;;;;;;;;;;1.19;65.80;94345.38;4978581;28;19970;-63
2021/12/24 12:07:09;;;;;;;;;;;;;;;0.83;66.61;94354.88;4978975;28;20290;-63
2021/12/24 12:09:41;;;;;;;;;;;;;;;0.97;67.50;94339.59;4984601;28;20354;-63
2021/12/24 12:12:06;;;;;;;;;;;;;;;0.78;68.10;94333.53;4983369;28;20029;-63
2021/12/24 12:14:33;;;;;;;;;;;;;;;1.55;65.68;94332.25;4979226;28;20212;-63
2021/12/24 12:17:01;;;;;;;;;;;;;;;1.86;64.50;94328.34;4977969;28;20010;-63
2021/12/24 12:22:11;;;;;;;;;;;;;;;1.62;65.44;94316.72;4978504;28;19970;-63
2021/12/24 12:27:19;;;;;;;;;;;;;;;1.45;65.53;94313.13;4978741;28;19998;-63
2021/12/24 12:29:44;;;;;;;;;;;;;;;2.31;63.08;94322.97;4989574;28;19973;-63
2021/12/24 12:32:12;;;;;;;;;;;;;;;2.59;61.70;94302.53;4994300;28;19985;-63
2021/12/24 12:34:44;;;;;;;;;;;;;;;2.46;62.45;94307.44;4989225;28;20256;-62
2021/12/24 12:37:12;;;;;;;;;;;;;;;2.69;61.74;94307.63;4989076;28;20540;-63
2021/12/24 12:39:37;;;;;;;;;;;;;;;2.31;62.60;94315.09;4984812;28;20002;-63
2021/12/24 12:42:02;;;;;;;;;;;;;;;2.00;63.51;94314.63;4976989;28;20013;-63
2021/12/24 12:44:28;;;;;;;;;;;;;;;2.47;62.57;94311.69;4978285;28;19978;-63
2021/12/24 12:47:01;;;;;;;;;;;;;;;2.34;63.08;94312.97;4977854;28;19994;-63
2021/12/24 12:49:32;;;;;;;;;;;;;;;3.05;61.04;94290.78;4976668;28;19974;-63
2021/12/24 12:51:58;;;;;;;;;;;;;;;2.75;61.64;94293.03;4977525;28;20092;-64
2021/12/24 12:54:34;;;;;;;;;;;;;;;2.64;62.43;94291.53;4976936;28;20128;-63
2021/12/24 12:57:09;;;;;;;;;;;;;;;2.34;63.17;94294.59;4975868;28;19970;-63
2021/12/24 12:59:34;;;;;;;;;;;;;;;2.51;62.80;94297.25;4976651;28;20426;-63
2021/12/24 13:02:01;;;;;;;;;;;;;;;3.05;60.92;94290.78;4979166;28;20558;-63
2021/12/24 13:04:26;;;;;;;;;;;;;;;3.38;60.61;94290.78;4981794;28;20435;-64
2021/12/24 13:06:52;;;;;;;;;;;;;;;3.35;60.17;94291.13;4985604;28;20017;-63
2021/12/24 13:09:21;;;;;;;;;;;;;;;3.87;58.74;94286.44;4976173;28;19970;-63
2021/12/24 13:11:46;;;;;;;;;;;;;;;3.40;58.82;94283.53;4974139;28;19994;-64
2021/12/24 13:14:12;;;;;;;;;;;;;;;4.37;57.01;94283.66;4976987;28;20511;-63
2021/12/24 13:16:43;;;;;;;;;;;;;;;4.25;57.11;94287.66;4983007;28;19974;-63
2021/12/24 13:24:15;;;;;;;;;;;;;;;4.29;56.91;94300.31;4976213;28;20080;-64
2021/12/24 13:26:42;;;;;;;;;;;;;;;4.02;58.02;94291.84;4989261;28;20124;-64
2021/12/24 13:29:16;;;;;;;;;;;;;;;4.23;57.11;94287.81;4985723;28;20044;-63
2021/12/24 13:31:41;;;;;;;;;;;;;;;4.44;56.74;94289.88;4991339;28;20564;-63
2021/12/24 13:34:10;;;;;;;;;;;;;;;4.30;56.99;94291.44;4989498;28;20460;-63
2021/12/24 13:36:36;;;;;;;;;;;;;;;4.74;55.39;94293.66;4991625;28;20389;-63
2021/12/24 13:39:07;;;;;;;;;;;;;;;5.01;54.84;94289.72;4974732;28;19998;-64
2021/12/24 13:41:32;;;;;;;;;;;;;;;4.83;55.58;94293.44;4977945;28;19981;-64
2021/12/24 13:43:58;;;;;;;;;;;;;;;5.11;54.10;94297.44;4981307;28;20288;-64
2021/12/24 13:46:25;;;;;;;;;;;;;;;4.78;54.78;94285.25;4978748;28;20045;-64
2021/12/24 13:49:40;;;;;;;;;;;;;;;4.79;55.19;94288.69;4989400;28;19966;-64
2021/12/24 13:54:34;;;;;;;;;;;;;;;4.06;57.10;94303.66;4980381;28;19997;-64
2021/12/24 13:57:00;;;;;;;;;;;;;;;3.87;58.24;94302.25;4991873;28;20450;-63
2021/12/24 13:59:25;;;;;;;;;;;;;;;3.77;58.30;94298.97;4980233;28;19990;-63
2021/12/24 14:01:50;;;;;;;;;;;;;;;3.67;58.53;94302.63;4983478;28;19969;-63
2021/12/24 14:04:16;;;;;;;;;;;;;;;3.29;59.98;94297.03;4992509;28;19970;-63
2021/12/24 14:06:42;;;;;;;;;;;;;;;2.37;62.08;94291.66;4980154;28;19997;-63
2021/12/24 14:09:11;;;;;;;;;;;;;;;2.41;62.77;94307.91;4980304;28;19978;-63
2021/12/24 14:11:37;;;;;;;;;;;;;;;2.23;63.56;94302.75;4992114;28;20259;-63
2021/12/24 14:14:06;;;;;;;;;;;;;;;2.45;62.92;94316.31;4992708;28;20621;-63
2021/12/24 14:19:08;;;;;;;;;;;;;;;2.48;62.77;94308.06;4983519;28;19986;-63
2021/12/24 14:24:12;;;;;;;;;;;;;;;2.38;63.02;94319.56;4996939;28;20036;-63
2021/12/24 14:26:38;;;;;;;;;;;;;;;3.07;60.32;94314.28;4981240;28;19989;-64
2021/12/24 14:29:06;;;;;;;;;;;;;;;2.10;63.28;94330.28;4983889;28;20328;-63
2021/12/24 14:31:50;;;;;;;;;;;;;;;1.64;65.21;94332.31;4979770;28;20564;-63
2021/12/24 14:34:28;;;;;;;;;;;;;;;1.57;65.29;94335.53;4986526;28;20009;-63
2021/12/24 14:36:59;;;;;;;;;;;;;;;1.60;65.38;94316.84;4980314;28;20024;-63
2021/12/24 14:39:25;;;;;;;;;;;;;;;1.87;63.97;94312.44;4980274;28;20041;-63
2021/12/24 14:42:08;;;;;;;;;;;;;;;1.91;63.97;94318.22;4979721;28;20070;-63